Time;durP1;ratioP1;P1;durP2;ratioP2;P2;SDS_P1;SDS_P2;PMS_P1;PMS_P2;Temp;Humidity;BMP_temperature;BMP_pressure;BME280_temperature;BME280_humidity;BME280_pressure;Samples;Min_cycle;Max_cycle;Signal;HPM_P1;HPM_P2
2020/12/29 00:01:48;;;;;;;3.55;2.30;;;;;;;22.75;42.11;93811.31;5052138;28;20028;-71
2020/12/29 00:04:22;;;;;;;2.80;2.00;;;;;;;22.62;42.33;93751.56;5052196;28;20481;-72
2020/12/29 00:06:47;;;;;;;2.80;2.00;;;;;;;22.70;42.33;93779.53;5050924;28;20025;-71
2020/12/29 00:09:13;;;;;;;3.15;2.13;;;;;;;22.67;42.19;93769.72;5052080;28;20040;-72
2020/12/29 00:11:39;;;;;;;3.40;2.50;;;;;;;22.67;42.24;93802.38;5050350;28;20028;-72
2020/12/29 00:14:05;;;;;;;2.85;2.13;;;;;;;22.54;42.39;93773.25;5052109;28;20021;-71
2020/12/29 00:16:30;;;;;;;3.13;2.20;;;;;;;22.63;42.20;93812.84;5051932;28;20048;-71
2020/12/29 00:18:56;;;;;;;2.80;2.10;;;;;;;22.59;42.37;93807.03;5051326;28;20025;-71
2020/12/29 00:21:21;;;;;;;2.20;1.90;;;;;;;22.58;42.50;93811.00;5051757;28;20082;-71
2020/12/29 00:23:47;;;;;;;3.10;2.20;;;;;;;22.58;42.23;93802.84;5051609;28;20028;-71
2020/12/29 00:26:14;;;;;;;2.60;2.08;;;;;;;22.56;42.54;93808.09;5050695;28;20111;-71
2020/12/29 00:28:39;;;;;;;3.20;2.22;;;;;;;22.54;42.42;93816.03;5051505;28;20545;-71
2020/12/29 00:31:05;;;;;;;3.15;2.00;;;;;;;22.50;42.70;93826.56;5050269;28;20033;-71
2020/12/29 00:33:30;;;;;;;2.95;2.10;;;;;;;22.50;42.64;93837.44;5050469;28;20032;-71
2020/12/29 00:35:56;;;;;;;2.72;2.17;;;;;;;22.47;42.30;93812.00;5051408;28;20032;-72
2020/12/29 00:38:21;;;;;;;2.50;1.95;;;;;;;22.47;42.35;93816.72;5051451;28;20021;-71
2020/12/29 00:40:46;;;;;;;2.80;1.98;;;;;;;22.45;42.55;93813.78;5051671;28;20467;-71
2020/12/29 00:43:12;;;;;;;3.30;2.05;;;;;;;22.44;42.44;93812.34;5051352;28;20021;-72
2020/12/29 00:45:37;;;;;;;3.28;2.00;;;;;;;22.43;42.37;93821.75;5051695;28;20025;-71
2020/12/29 00:48:03;;;;;;;2.72;1.80;;;;;;;22.41;42.74;93818.84;5051620;28;20359;-72
2020/12/29 00:50:29;;;;;;;2.80;2.22;;;;;;;22.41;42.71;93818.13;5033908;28;20048;-72
2020/12/29 00:52:54;;;;;;;2.72;2.13;;;;;;;22.40;42.82;93817.38;5051109;28;20500;-71
2020/12/29 00:55:19;;;;;;;2.90;2.00;;;;;;;22.38;42.80;93817.19;5050185;28;20110;-71
2020/12/29 00:57:45;;;;;;;2.78;1.98;;;;;;;22.36;42.63;93773.50;5049858;28;20556;-71
2020/12/29 01:00:10;;;;;;;2.40;1.80;;;;;;;22.37;42.68;93772.22;5050967;28;20112;-72
2020/12/29 01:02:36;;;;;;;2.40;1.80;;;;;;;22.29;42.61;93740.78;5049955;28;20040;-71
2020/12/29 01:05:02;;;;;;;2.20;1.80;;;;;;;22.26;42.46;93715.38;5049675;28;20028;-71
2020/12/29 01:07:27;;;;;;;2.95;1.95;;;;;;;22.29;42.59;93730.63;5050966;28;20032;-71
2020/12/29 01:09:53;;;;;;;3.05;1.80;;;;;;;22.32;42.60;93762.22;5050763;28;20020;-71
2020/12/29 01:12:18;;;;;;;2.45;1.90;;;;;;;22.27;42.78;93744.03;5050883;28;20013;-71
2020/12/29 01:14:44;;;;;;;2.58;1.85;;;;;;;22.14;42.87;93708.00;5050694;28;20075;-72
2020/12/29 01:17:11;;;;;;;2.63;1.98;;;;;;;22.28;42.57;93706.69;5049624;28;20053;-71
2020/12/29 01:19:37;;;;;;;2.83;2.05;;;;;;;22.24;42.69;93723.34;5049763;28;20128;-72
2020/12/29 01:22:02;;;;;;;2.70;2.03;;;;;;;22.26;42.79;93720.81;5052214;28;20075;-71
2020/12/29 01:24:28;;;;;;;2.42;1.85;;;;;;;22.25;42.79;93713.91;5051986;28;20090;-71
2020/12/29 01:26:56;;;;;;;2.45;1.73;;;;;;;22.25;42.81;93743.09;5051793;28;20024;-72
2020/12/29 01:29:21;;;;;;;2.33;1.90;;;;;;;22.22;42.83;93720.41;5050824;28;20417;-72
2020/12/29 01:31:47;;;;;;;2.50;1.90;;;;;;;22.22;42.75;93734.00;5050836;28;20028;-72
2020/12/29 01:34:12;;;;;;;2.58;2.05;;;;;;;21.99;42.61;93724.91;5050937;28;20025;-72
2020/12/29 01:36:38;;;;;;;2.95;1.67;;;;;;;22.20;42.89;93771.88;5050649;28;20025;-72
2020/12/29 01:39:03;;;;;;;2.20;1.73;;;;;;;22.10;42.83;93768.13;5050814;28;20467;-72
2020/12/29 01:41:32;;;;;;;2.88;2.10;;;;;;;22.18;42.83;93779.84;5050208;28;20033;-71
2020/12/29 01:44:17;;;;;;;2.33;1.58;;;;;;;22.15;42.81;93775.44;5051771;28;20524;-72
2020/12/29 01:46:43;;;;;;;2.70;2.05;;;;;;;22.17;42.82;93783.81;5050274;28;20027;-72
2020/12/29 01:49:09;;;;;;;2.50;1.88;;;;;;;22.15;42.72;93791.78;5049208;28;20036;-72
2020/12/29 01:51:34;;;;;;;2.80;1.70;;;;;;;22.17;42.80;93791.25;5050134;28;20024;-72
2020/12/29 01:54:00;;;;;;;2.30;1.65;;;;;;;22.14;42.81;93784.88;5050137;28;20028;-72
2020/12/29 01:56:25;;;;;;;2.42;1.70;;;;;;;22.11;42.89;93780.47;5050019;28;20029;-72
2020/12/29 01:58:51;;;;;;;2.25;1.65;;;;;;;22.03;42.74;93763.38;5032385;28;20060;-72
2020/12/29 02:01:16;;;;;;;2.00;1.50;;;;;;;22.11;42.87;93780.47;5032102;28;20510;-72
2020/12/29 02:03:42;;;;;;;2.03;1.45;;;;;;;22.11;42.93;93764.16;5050109;28;20021;-72
2020/12/29 02:06:07;;;;;;;2.42;1.60;;;;;;;22.09;42.74;93750.38;5048814;28;20029;-72
2020/12/29 02:08:33;;;;;;;3.20;1.88;;;;;;;22.09;42.88;93761.25;5050050;28;20033;-72
2020/12/29 02:10:58;;;;;;;2.50;1.80;;;;;;;22.09;42.92;93782.25;5049926;28;20033;-72
2020/12/29 02:13:24;;;;;;;2.03;1.70;;;;;;;22.08;42.92;93789.69;5048411;28;20025;-72
2020/12/29 02:15:49;;;;;;;3.20;1.77;;;;;;;22.08;42.94;93786.97;5048642;28;20434;-72
2020/12/29 02:18:15;;;;;;;2.35;1.67;;;;;;;22.05;42.75;93782.59;5049746;28;20509;-72
2020/12/29 02:20:40;;;;;;;2.00;1.63;;;;;;;22.04;42.85;93781.13;5049850;28;20464;-72
2020/12/29 02:23:06;;;;;;;2.05;1.60;;;;;;;22.01;43.05;93751.56;5049502;28;20025;-72
2020/12/29 02:25:31;;;;;;;2.00;1.50;;;;;;;22.03;42.91;93752.50;5049765;28;20040;-72
2020/12/29 02:27:57;;;;;;;2.20;1.65;;;;;;;22.03;42.66;93763.38;5049937;28;20029;-72
2020/12/29 02:30:23;;;;;;;2.30;1.58;;;;;;;21.99;42.70;93754.81;5048728;28;20116;-72
2020/12/29 02:32:48;;;;;;;2.13;1.50;;;;;;;22.02;42.64;93767.34;5049870;28;20037;-72
2020/12/29 02:35:15;;;;;;;2.72;1.60;;;;;;;22.00;42.79;93780.75;5052270;28;20493;-72
2020/12/29 02:37:41;;;;;;;2.65;1.35;;;;;;;21.96;42.85;93774.91;5053705;28;20505;-72
2020/12/29 02:40:06;;;;;;;2.20;1.75;;;;;;;21.99;42.89;93757.53;5053873;28;20040;-72
2020/12/29 02:42:32;;;;;;;2.40;1.77;;;;;;;21.94;42.90;93777.44;5053467;28;20090;-72
2020/12/29 02:44:57;;;;;;;2.35;1.50;;;;;;;21.90;42.94;93770.13;5053709;28;20082;-72
2020/12/29 02:47:23;;;;;;;2.00;1.55;;;;;;;21.98;42.87;93783.25;5053897;28;20512;-72
2020/12/29 02:49:48;;;;;;;2.22;1.70;;;;;;;21.98;42.87;93783.25;5053551;28;20375;-72
2020/12/29 02:52:14;;;;;;;2.25;1.60;;;;;;;21.96;42.86;93780.34;5053677;28;20425;-72
2020/12/29 02:54:39;;;;;;;2.40;1.70;;;;;;;21.98;42.76;93788.69;5053217;28;20044;-72
2020/12/29 02:57:05;;;;;;;2.05;1.30;;;;;;;21.95;42.86;93810.78;5053410;28;20475;-72
2020/12/29 02:59:30;;;;;;;1.70;1.40;;;;;;;21.95;42.81;93789.75;5053294;28;20513;-72
2020/12/29 03:01:56;;;;;;;1.77;1.48;;;;;;;21.92;42.92;93801.66;5053319;28;20029;-71
2020/12/29 03:04:21;;;;;;;2.35;1.48;;;;;;;21.93;42.70;93797.00;5053313;28;20035;-72
2020/12/29 03:06:47;;;;;;;2.20;1.65;;;;;;;21.89;43.00;93812.16;5052187;28;20047;-72
2020/12/29 03:09:13;;;;;;;1.98;1.40;;;;;;;21.93;42.88;93862.94;5053013;28;20055;-72
2020/12/29 03:11:38;;;;;;;1.50;1.20;;;;;;;21.94;42.72;93842.66;5052824;28;20091;-72
2020/12/29 03:14:05;;;;;;;2.70;1.60;;;;;;;21.92;42.85;93856.03;5053239;28;20059;-72
2020/12/29 03:16:30;;;;;;;1.90;1.33;;;;;;;21.93;42.92;93852.06;5052856;28;20056;-71
2020/12/29 03:18:56;;;;;;;2.50;1.42;;;;;;;21.89;42.89;93828.47;5053039;28;20021;-72
2020/12/29 03:21:22;;;;;;;2.33;1.85;;;;;;;21.92;43.01;93865.47;5052938;28;20032;-72
2020/12/29 03:23:47;;;;;;;1.52;1.30;;;;;;;21.79;43.03;93841.03;5051770;28;20036;-72
2020/12/29 03:26:13;;;;;;;2.55;1.33;;;;;;;21.87;43.00;93863.56;5035271;28;20021;-72
2020/12/29 03:28:38;;;;;;;3.20;1.20;;;;;;;21.91;42.94;93847.69;5051709;28;20091;-72
2020/12/29 03:31:07;;;;;;;2.67;1.30;;;;;;;21.90;42.92;93846.22;5052863;28;20516;-72
2020/12/29 03:33:32;;;;;;;2.17;1.25;;;;;;;21.77;43.16;93843.56;5052500;28;20036;-72
2020/12/29 03:35:58;;;;;;;2.15;1.38;;;;;;;21.80;42.95;93837.06;5051408;28;20025;-72
2020/12/29 03:38:24;;;;;;;1.40;1.10;;;;;;;21.88;43.08;93827.00;5052705;28;20029;-72
2020/12/29 03:40:49;;;;;;;2.67;1.58;;;;;;;21.78;42.87;93823.25;5052637;28;20025;-72
2020/12/29 03:43:15;;;;;;;1.73;1.20;;;;;;;21.88;43.00;93833.16;5052649;28;20032;-72
2020/12/29 03:45:44;;;;;;;1.85;1.38;;;;;;;21.87;43.02;93831.72;5051914;28;20056;-72
2020/12/29 03:48:10;;;;;;;2.42;1.60;;;;;;;21.89;43.04;93844.78;5050901;28;20108;-71
2020/12/29 03:50:36;;;;;;;1.75;1.25;;;;;;;21.89;43.10;93839.34;5052268;28;20420;-73
2020/12/29 03:53:01;;;;;;;1.80;1.40;;;;;;;21.90;43.07;93857.09;5051239;28;20054;-72
2020/12/29 03:55:27;;;;;;;2.35;1.42;;;;;;;21.92;43.14;93828.84;5052385;28;20036;-72
2020/12/29 03:57:52;;;;;;;2.13;1.40;;;;;;;21.94;43.04;93842.66;5052352;28;20028;-72
2020/12/29 04:00:18;;;;;;;1.88;1.10;;;;;;;21.97;42.95;93803.56;5052429;28;20029;-72
2020/12/29 04:02:43;;;;;;;2.22;1.20;;;;;;;22.00;42.92;93851.44;5052185;28;20025;-72
2020/12/29 04:05:11;;;;;;;1.83;1.27;;;;;;;22.04;42.82;93835.50;5051977;28;20037;-71
2020/12/29 04:07:37;;;;;;;1.60;1.27;;;;;;;21.93;42.71;93835.75;5052032;28;20028;-71
2020/12/29 04:10:03;;;;;;;1.60;1.30;;;;;;;22.11;43.00;93851.16;5050878;28;20033;-71
2020/12/29 04:12:28;;;;;;;1.55;1.10;;;;;;;22.13;42.72;93858.81;5052251;28;20025;-71
2020/12/29 04:14:54;;;;;;;1.75;1.10;;;;;;;22.17;42.62;93854.50;5052891;28;20401;-71
2020/12/29 04:17:19;;;;;;;1.63;1.00;;;;;;;22.20;42.51;93842.56;5054093;28;20044;-71
2020/12/29 04:19:45;;;;;;;2.28;1.13;;;;;;;22.22;42.55;93818.31;5054195;28;20036;-71
2020/12/29 04:22:10;;;;;;;1.55;1.10;;;;;;;22.21;42.77;93816.88;5055220;28;20485;-71
2020/12/29 04:24:35;;;;;;;1.38;1.00;;;;;;;22.25;42.42;93847.16;5056675;28;20091;-71
2020/12/29 04:27:01;;;;;;;2.10;1.35;;;;;;;22.26;42.46;93840.47;5053816;28;20037;-71
2020/12/29 04:29:27;;;;;;;3.83;1.20;;;;;;;22.26;42.16;93832.31;5052949;28;20021;-71
2020/12/29 04:31:52;;;;;;;2.97;1.10;;;;;;;22.27;42.60;93847.38;5052974;28;20026;-71
2020/12/29 04:34:17;;;;;;;1.85;1.08;;;;;;;22.31;42.20;93820.56;5052117;28;20029;-72
2020/12/29 04:36:43;;;;;;;2.95;0.90;;;;;;;22.31;42.25;93853.19;5051519;28;20039;-72
2020/12/29 04:39:09;;;;;;;3.30;1.15;;;;;;;22.34;42.11;93841.25;5050458;28;20478;-72
2020/12/29 04:41:35;;;;;;;1.73;1.10;;;;;;;22.27;41.87;93836.50;5051455;28;20074;-72
2020/12/29 04:44:00;;;;;;;2.50;1.13;;;;;;;22.35;42.12;93847.44;5050227;28;20210;-72
2020/12/29 04:46:26;;;;;;;1.75;1.15;;;;;;;22.30;42.06;93846.31;5050336;28;20029;-72
2020/12/29 04:48:52;;;;;;;2.60;1.10;;;;;;;22.40;41.98;93844.59;5050217;28;20036;-72
2020/12/29 04:51:17;;;;;;;2.83;1.17;;;;;;;22.35;42.03;93853.63;5051333;28;20074;-72
2020/12/29 04:53:52;;;;;;;3.22;1.10;;;;;;;22.36;41.86;93843.44;5050348;28;20036;-73
2020/12/29 04:56:17;;;;;;;2.15;0.93;;;;;;;22.33;41.83;93867.03;5050291;28;20474;-72
2020/12/29 04:58:43;;;;;;;2.58;1.10;;;;;;;22.31;41.96;93863.38;5033314;28;20032;-72
2020/12/29 05:01:09;;;;;;;1.67;1.00;;;;;;;22.44;42.10;93885.78;5033100;28;20029;-72
2020/12/29 05:03:50;;;;;;;1.88;0.77;;;;;;;22.45;41.74;93841.75;5049882;28;20029;-72
2020/12/29 05:06:16;;;;;;;1.40;1.08;;;;;;;22.44;41.75;93889.25;5049782;28;20116;-71
2020/12/29 05:08:45;;;;;;;1.35;0.90;;;;;;;22.47;41.78;93887.47;5049712;28;20425;-72
2020/12/29 05:11:11;;;;;;;1.77;0.87;;;;;;;22.50;41.67;93886.41;5050988;28;20036;-71
2020/12/29 05:13:36;;;;;;;1.92;0.90;;;;;;;22.50;41.73;93894.56;5050995;28;20029;-72
2020/12/29 05:16:02;;;;;;;1.38;0.95;;;;;;;22.38;41.61;93863.44;5050652;28;20045;-71
2020/12/29 05:18:27;;;;;;;1.80;0.90;;;;;;;22.47;41.44;93887.47;5049533;28;20029;-72
2020/12/29 05:20:53;;;;;;;1.95;1.00;;;;;;;22.52;41.90;93856.66;5033221;28;20036;-72
2020/12/29 05:23:18;;;;;;;1.33;0.82;;;;;;;22.46;41.80;93894.16;5047624;28;20079;-72
2020/12/29 05:25:47;;;;;;;2.20;0.95;;;;;;;22.53;41.67;93885.34;5030887;28;20021;-72
2020/12/29 05:28:13;;;;;;;2.58;0.90;;;;;;;22.54;41.76;93843.25;5039007;28;20021;-73
2020/12/29 05:30:39;;;;;;;1.70;0.88;;;;;;;22.58;41.55;93866.16;5030864;28;20402;-71
2020/12/29 05:33:13;;;;;;;2.05;1.27;;;;;;;22.61;41.53;93842.59;5030207;28;20021;-71
2020/12/29 05:35:39;;;;;;;1.40;0.70;;;;;;;22.65;41.53;93838.28;5046019;28;20029;-72
2020/12/29 05:38:06;;;;;;;1.23;0.90;;;;;;;22.66;41.45;93844.44;5049945;28;20028;-72
2020/12/29 05:40:32;;;;;;;2.67;1.00;;;;;;;22.68;41.26;93844.66;5048580;28;20083;-71
2020/12/29 05:42:59;;;;;;;2.30;0.93;;;;;;;22.72;41.68;93853.19;5050539;28;20020;-71
2020/12/29 05:45:36;;;;;;;1.50;0.90;;;;;;;22.75;41.24;93863.75;5053760;28;20098;-71
2020/12/29 05:48:02;;;;;;;0.95;0.70;;;;;;;22.70;41.05;93833.97;5049478;28;20098;-71
2020/12/29 05:50:28;;;;;;;1.08;0.77;;;;;;;22.86;41.23;93862.75;5046822;28;20441;-71
2020/12/29 05:53:04;;;;;;;2.88;0.77;;;;;;;22.93;41.34;93868.25;5037392;28;20142;-71
2020/12/29 05:55:31;;;;;;;1.33;0.70;;;;;;;22.99;41.15;93888.66;5036762;28;20029;-71
2020/12/29 05:58:01;;;;;;;1.90;0.70;;;;;;;23.11;40.91;93889.13;5049213;28;20029;-71
2020/12/29 06:00:26;;;;;;;1.20;0.85;;;;;;;23.21;40.72;93865.56;5047920;28;20056;-71
2020/12/29 06:02:54;;;;;;;1.45;1.02;;;;;;;23.30;40.38;93879.41;5047477;28;20486;-71
2020/12/29 06:05:20;;;;;;;1.23;0.70;;;;;;;23.40;40.20;93866.78;5049066;28;20029;-71
2020/12/29 06:07:46;;;;;;;1.58;0.60;;;;;;;23.45;40.04;93876.78;5031320;28;20489;-70
2020/12/29 06:10:11;;;;;;;2.05;0.90;;;;;;;23.52;40.08;93840.69;5048339;28;20099;-71
2020/12/29 06:12:37;;;;;;;1.17;0.80;;;;;;;23.72;39.72;93891.66;5047903;28;20017;-71
2020/12/29 06:15:02;;;;;;;2.05;1.02;;;;;;;23.82;39.17;93879.00;5049366;28;20488;-71
2020/12/29 06:17:31;;;;;;;1.58;0.60;;;;;;;23.91;39.06;93874.47;5048397;28;20485;-71
2020/12/29 06:20:03;;;;;;;1.10;0.70;;;;;;;24.02;39.33;93854.34;5049337;28;20549;-71
2020/12/29 06:22:28;;;;;;;0.68;0.50;;;;;;;24.09;38.84;93868.00;5049097;28;20028;-72
2020/12/29 06:24:54;;;;;;;2.45;0.80;;;;;;;24.17;38.60;93876.94;5030446;28;20029;-71
2020/12/29 06:27:19;;;;;;;1.10;0.60;;;;;;;24.30;38.76;93892.44;5045817;28;20033;-72
2020/12/29 06:29:45;;;;;;;1.20;0.60;;;;;;;24.39;38.47;93909.03;5040904;28;20044;-70
2020/12/29 06:32:12;;;;;;;0.98;0.70;;;;;;;24.47;38.16;93882.50;5048710;28;20043;-70
2020/12/29 06:34:39;;;;;;;1.23;0.60;;;;;;;24.56;38.10;93895.63;5046120;28;20036;-71
2020/12/29 06:37:27;;;;;;;1.35;0.60;;;;;;;24.59;38.28;93878.88;5038045;28;20024;-72
2020/12/29 06:40:06;;;;;;;0.90;0.70;;;;;;;24.60;37.86;93874.16;5049285;28;20033;-71
2020/12/29 06:42:31;;;;;;;1.02;0.70;;;;;;;24.78;37.87;93931.13;5047142;28;20036;-71
2020/12/29 06:44:57;;;;;;;0.85;0.60;;;;;;;24.82;37.65;93950.63;5033231;28;20099;-71
2020/12/29 06:47:24;;;;;;;0.88;0.60;;;;;;;24.85;37.83;93922.94;5047719;28;20413;-72
2020/12/29 06:49:50;;;;;;;1.20;0.60;;;;;;;24.93;37.23;93923.69;5047693;28;20025;-71
2020/12/29 06:52:28;;;;;;;0.98;0.50;;;;;;;24.99;37.21;93940.66;5048597;28;20029;-73
2020/12/29 06:54:57;;;;;;;0.75;0.50;;;;;;;25.00;37.66;93955.78;5049063;28;20021;-72
2020/12/29 06:57:35;;;;;;;1.15;0.80;;;;;;;25.05;37.43;93924.84;5048149;28;20082;-71
2020/12/29 07:00:06;;;;;;;0.73;0.50;;;;;;;25.07;37.22;93930.47;5049446;28;20090;-71
2020/12/29 07:02:35;;;;;;;1.42;0.75;;;;;;;25.11;37.32;93955.44;5049480;28;20554;-71
2020/12/29 07:05:07;;;;;;;1.05;0.65;;;;;;;25.12;37.36;93935.00;5045690;28;20036;-73
2020/12/29 07:07:33;;;;;;;1.13;0.73;;;;;;;25.17;36.92;93953.25;5041903;28;20064;-71
2020/12/29 07:10:19;;;;;;;0.80;0.55;;;;;;;25.18;37.24;93949.22;5037028;28;20025;-71
2020/12/29 07:12:46;;;;;;;1.00;0.70;;;;;;;25.24;36.90;93941.56;5039053;28;20041;-71
2020/12/29 07:15:21;;;;;;;1.23;0.77;;;;;;;25.24;37.19;93929.91;5043175;28;20060;-73
2020/12/29 07:17:57;;;;;;;1.48;0.80;;;;;;;25.17;36.92;93950.50;5045148;28;20129;-71
2020/12/29 07:20:23;;;;;;;0.52;0.47;;;;;;;25.32;36.65;93969.66;5032925;28;20486;-74
2020/12/29 07:23:07;;;;;;;1.25;0.80;;;;;;;25.24;36.65;93936.09;5051766;28;20063;-75
2020/12/29 07:25:33;;;;;;;0.93;0.52;;;;;;;25.37;36.73;93955.06;5052811;28;20045;-73
2020/12/29 07:28:04;;;;;;;0.90;0.50;;;;;;;25.37;36.63;93944.13;5052540;28;20547;-71
2020/12/29 07:30:30;;;;;;;0.88;0.57;;;;;;;25.38;36.83;93951.03;5052570;28;20699;-72
2020/12/29 07:32:57;;;;;;;0.95;0.50;;;;;;;25.39;36.84;93968.91;5049955;28;20017;-73
2020/12/29 07:35:22;;;;;;;0.88;0.60;;;;;;;25.41;36.63;93966.34;5042524;28;20494;-74
2020/12/29 07:37:49;;;;;;;1.52;0.60;;;;;;;25.48;36.46;93971.81;5038180;28;20022;-72
2020/12/29 07:40:15;;;;;;;1.10;0.47;;;;;;;25.50;36.52;94001.31;5062434;28;20513;-73
2020/12/29 07:42:40;;;;;;;0.63;0.40;;;;;;;25.55;36.50;94006.63;5045999;28;20028;-71
2020/12/29 07:45:06;;;;;;;1.70;0.60;;;;;;;25.56;36.75;94001.88;5032041;28;20021;-71
2020/12/29 07:47:31;;;;;;;0.73;0.47;;;;;;;25.58;36.46;94013.00;5033653;28;20025;-74
2020/12/29 07:50:00;;;;;;;0.75;0.50;;;;;;;25.59;36.39;94036.31;5034681;28;20099;-73
2020/12/29 07:52:25;;;;;;;1.02;0.50;;;;;;;25.67;36.19;93998.81;5063618;28;20524;-74
2020/12/29 07:55:10;;;;;;;1.08;0.50;;;;;;;25.72;36.13;94001.34;5037943;28;20029;-75
2020/12/29 07:57:36;;;;;;;0.90;0.60;;;;;;;25.75;35.92;94032.34;5060075;28;20044;-71
2020/12/29 08:00:14;;;;;;;0.60;0.50;;;;;;;25.74;35.93;94009.00;5037638;28;20486;-72
2020/12/29 08:02:39;;;;;;;2.40;0.60;;;;;;;25.75;35.92;94010.47;5052048;28;20529;-72
2020/12/29 08:05:05;;;;;;;1.73;0.50;;;;;;;25.79;36.14;94027.25;5051779;28;20115;-72
2020/12/29 08:07:31;;;;;;;1.50;0.40;;;;;;;25.82;36.14;94032.34;5050807;28;20107;-73
2020/12/29 08:09:56;;;;;;;2.22;0.57;;;;;;;25.79;35.93;94034.16;5065921;28;20055;-70
2020/12/29 08:12:22;;;;;;;1.85;0.40;;;;;;;25.86;35.97;94027.25;5050588;28;20105;-71
2020/12/29 08:14:47;;;;;;;1.08;0.40;;;;;;;25.74;35.61;94026.16;5049625;28;20029;-72
2020/12/29 08:17:13;;;;;;;0.82;0.52;;;;;;;25.86;35.96;94025.22;5050233;28;20053;-71
2020/12/29 08:19:38;;;;;;;0.90;0.50;;;;;;;25.90;35.73;94038.53;5040097;28;20479;-71
2020/12/29 08:22:05;;;;;;;0.90;0.40;;;;;;;25.91;35.66;94007.88;5045770;28;20040;-71
2020/12/29 08:24:31;;;;;;;1.10;0.45;;;;;;;25.86;35.59;94017.03;5051702;28;20024;-72
2020/12/29 08:26:57;;;;;;;1.38;0.50;;;;;;;25.97;35.56;94016.63;5051302;28;20033;-72
2020/12/29 08:29:23;;;;;;;0.77;0.40;;;;;;;25.89;35.32;94017.94;5050191;28;20025;-72
2020/12/29 08:31:48;;;;;;;1.45;0.30;;;;;;;25.95;35.54;94013.72;5050078;28;20036;-73
2020/12/29 08:34:13;;;;;;;0.73;0.50;;;;;;;25.94;35.23;94061.50;5033032;28;20027;-72
2020/12/29 08:36:39;;;;;;;1.10;0.50;;;;;;;25.81;35.62;94004.28;5032499;28;20025;-73
2020/12/29 08:39:22;;;;;;;0.70;0.40;;;;;;;25.98;35.32;94039.97;5049594;28;20429;-73
2020/12/29 08:41:53;;;;;;;2.75;0.40;;;;;;;25.97;35.40;94022.09;5031496;28;20409;-73
2020/12/29 08:44:19;;;;;;;2.38;0.57;;;;;;;25.91;35.09;94046.19;5047164;28;20409;-72
2020/12/29 08:46:44;;;;;;;0.85;0.43;;;;;;;26.01;35.41;94038.88;5046518;28;20024;-73
2020/12/29 08:49:09;;;;;;;1.90;0.40;;;;;;;25.96;35.35;94019.91;5051049;28;20498;-73
2020/12/29 08:51:42;;;;;;;1.17;0.35;;;;;;;26.09;35.15;94045.06;5050733;28;20025;-73
2020/12/29 08:54:16;;;;;;;0.93;0.40;;;;;;;26.10;35.37;94057.47;5037522;28;20054;-72
2020/12/29 08:56:42;;;;;;;0.85;0.40;;;;;;;26.13;35.15;94050.16;5049446;28;20025;-73
2020/12/29 08:59:14;;;;;;;1.10;0.40;;;;;;;26.14;35.27;94052.34;5044959;28;20164;-73
2020/12/29 09:01:46;;;;;;;1.02;0.55;;;;;;;26.16;35.25;94049.81;5043498;28;20108;-73
2020/12/29 09:04:34;;;;;;;1.95;0.40;;;;;;;26.19;35.27;94065.13;5049298;28;20074;-74
2020/12/29 09:07:04;;;;;;;1.88;0.43;;;;;;;26.10;35.18;94068.44;5050186;28;20480;-74
2020/12/29 09:09:31;;;;;;;1.65;0.40;;;;;;;26.03;35.06;94063.69;5048795;28;20029;-74
2020/12/29 09:12:07;;;;;;;0.75;0.40;;;;;;;26.19;35.01;94073.34;5050561;28;20151;-73
2020/12/29 09:14:32;;;;;;;0.65;0.40;;;;;;;26.07;34.96;94053.09;5048953;28;20051;-74
2020/12/29 09:17:02;;;;;;;1.77;0.40;;;;;;;26.15;35.20;94051.06;5033195;28;20052;-73
2020/12/29 09:19:27;;;;;;;2.10;0.30;;;;;;;26.22;35.04;94085.94;5032671;28;20417;-74
2020/12/29 09:22:14;;;;;;;0.98;0.40;;;;;;;26.16;35.04;94081.91;5036008;28;20025;-75
2020/12/29 09:24:53;;;;;;;0.50;0.30;;;;;;;26.09;35.13;94075.16;5050507;28;20057;-74
2020/12/29 09:27:28;;;;;;;0.73;0.32;;;;;;;26.20;35.05;94082.28;5029301;28;20033;-73
2020/12/29 09:29:54;;;;;;;1.63;0.30;;;;;;;26.26;35.02;94069.84;5030070;28;20030;-73
2020/12/29 09:32:20;;;;;;;1.00;0.40;;;;;;;26.31;34.90;94082.66;5029659;28;20036;-73
2020/12/29 09:34:46;;;;;;;1.23;0.40;;;;;;;26.32;34.95;94070.41;5032789;28;20090;-73
2020/12/29 09:37:12;;;;;;;1.13;0.40;;;;;;;26.32;34.78;94073.16;5031401;28;20037;-73
2020/12/29 09:39:37;;;;;;;1.17;0.40;;;;;;;26.33;35.10;94047.22;5035120;28;20040;-71
2020/12/29 09:42:02;;;;;;;1.30;0.30;;;;;;;26.34;34.78;94065.13;5032746;28;20028;-72
2020/12/29 09:44:28;;;;;;;1.17;0.35;;;;;;;26.35;34.48;94072.78;5037136;28;20029;-72
2020/12/29 09:46:53;;;;;;;0.98;0.45;;;;;;;26.39;34.60;94083.34;5038100;28;20025;-72
2020/12/29 09:49:19;;;;;;;0.68;0.35;;;;;;;26.39;33.74;94094.31;5030646;28;20525;-71
2020/12/29 09:51:44;;;;;;;0.77;0.40;;;;;;;26.38;34.29;94057.25;5031392;28;20416;-72
2020/12/29 09:54:10;;;;;;;0.30;0.30;;;;;;;26.40;34.47;94076.59;5039696;28;20477;-82
2020/12/29 09:56:35;;;;;;;0.50;0.30;;;;;;;26.41;34.38;94080.78;5046906;28;20025;-71
2020/12/29 09:59:01;;;;;;;0.55;0.28;;;;;;;26.42;34.32;94093.22;5032211;28;20027;-71
2020/12/29 10:01:26;;;;;;;0.93;0.30;;;;;;;26.45;34.18;94070.19;5045827;28;20047;-70
2020/12/29 10:03:52;;;;;;;0.75;0.28;;;;;;;26.47;34.23;94089.53;5029602;28;20020;-71
2020/12/29 10:06:17;;;;;;;0.98;0.30;;;;;;;26.50;34.25;94077.47;5032352;28;20111;-70
2020/12/29 10:08:43;;;;;;;0.82;0.45;;;;;;;26.41;34.56;94067.09;5033776;28;20017;-71
2020/12/29 10:11:11;;;;;;;0.52;0.30;;;;;;;26.47;34.39;94073.09;5045977;28;20470;-70
2020/12/29 10:13:37;;;;;;;0.88;0.50;;;;;;;26.47;34.09;94070.38;5033617;28;20045;-70
2020/12/29 10:16:03;;;;;;;1.58;0.40;;;;;;;26.49;34.29;94079.50;5037418;28;20049;-69
2020/12/29 10:18:28;;;;;;;1.08;0.32;;;;;;;26.52;34.15;94080.41;5043170;28;20532;-69
2020/12/29 10:20:54;;;;;;;1.30;0.40;;;;;;;26.56;34.00;94083.50;5032523;28;20421;-71
2020/12/29 10:23:19;;;;;;;1.27;0.40;;;;;;;26.46;34.32;94066.19;5041429;28;20032;-71
2020/12/29 10:25:46;;;;;;;0.75;0.40;;;;;;;26.36;34.43;94057.09;5049301;28;20025;-72
2020/12/29 10:28:12;;;;;;;2.20;0.30;;;;;;;26.45;34.17;94081.16;5048191;28;20116;-73
2020/12/29 10:30:37;;;;;;;0.98;0.40;;;;;;;26.46;34.03;94064.16;5049494;28;20111;-72
2020/12/29 10:33:03;;;;;;;0.68;0.40;;;;;;;26.45;34.36;94064.72;5049214;28;20055;-73
2020/12/29 10:35:28;;;;;;;0.65;0.30;;;;;;;26.45;34.28;94059.25;5050501;28;20047;-75
2020/12/29 10:37:54;;;;;;;0.60;0.30;;;;;;;26.44;34.12;94064.00;5049726;28;20016;-72
2020/12/29 10:40:19;;;;;;;1.75;0.50;;;;;;;26.43;34.12;94050.88;5048124;28;20497;-71
2020/12/29 10:42:45;;;;;;;2.17;0.50;;;;;;;26.36;33.91;94035.19;5049158;28;20021;-70
2020/12/29 10:45:10;;;;;;;0.77;0.40;;;;;;;26.36;34.09;94041.38;5049208;28;20028;-71
2020/12/29 11:00:31;;;;;;;1.02;0.50;;;;;;;26.39;33.47;94064.91;5151531;22;20164;-77
2020/12/29 11:02:57;;;;;;;1.23;0.45;;;;;;;26.29;33.59;94075.00;4999548;28;20030;-75
2020/12/29 11:05:22;;;;;;;2.80;0.60;;;;;;;26.28;33.56;94067.31;4996051;28;20025;-77
2020/12/29 11:07:48;;;;;;;0.93;0.50;;;;;;;26.35;33.37;94083.00;5008968;28;20018;-71
2020/12/29 11:10:13;;;;;;;1.48;0.40;;;;;;;26.28;33.70;94089.22;5011299;28;20022;-75
2020/12/29 11:12:39;;;;;;;1.10;0.40;;;;;;;26.28;33.83;94072.81;5010731;28;20026;-75
2020/12/29 11:15:04;;;;;;;2.33;0.47;;;;;;;26.31;33.47;94088.13;5011465;28;20030;-75
2020/12/29 11:17:32;;;;;;;1.13;0.40;;;;;;;26.25;33.80;94068.41;5012604;28;20029;-76
2020/12/29 11:19:57;;;;;;;1.17;0.45;;;;;;;26.34;34.11;94070.59;5011313;28;20116;-77
2020/12/29 11:22:23;;;;;;;0.68;0.32;;;;;;;26.36;33.92;94062.56;5012268;28;20022;-80
2020/12/29 11:24:48;;;;;;;2.15;0.52;;;;;;;26.41;33.96;94075.31;5012499;28;20038;-81
2020/12/29 11:27:13;;;;;;;2.38;0.55;;;;;;;26.39;34.03;94083.34;4967182;28;20430;-75
2020/12/29 11:29:39;;;;;;;1.40;0.65;;;;;;;26.40;33.93;94085.53;4995664;28;20501;-76
2020/12/29 11:32:04;;;;;;;1.10;0.50;;;;;;;26.35;34.11;94066.56;5296544;22;20053;-78
2020/12/29 11:34:30;;;;;;;0.85;0.40;;;;;;;26.38;33.98;94084.63;4977603;28;20026;-76
2020/12/29 11:36:55;;;;;;;1.10;0.40;;;;;;;26.44;33.85;94085.16;5013446;28;20025;-78
2020/12/29 11:39:21;;;;;;;2.08;0.63;;;;;;;26.38;34.13;94068.19;5008507;28;20026;-80
2020/12/29 11:41:51;;;;;;;1.70;0.50;;;;;;;26.47;33.94;94089.53;4976367;28;20030;-74
2020/12/29 11:44:16;;;;;;;1.70;0.50;;;;;;;26.51;34.09;94095.38;5016481;28;20061;-78
2020/12/29 11:46:41;;;;;;;2.92;0.50;;;;;;;26.43;34.07;94080.97;5015687;28;20461;-78